Airfield :
LOGIN :

Register | Disclaimer

   EN    FR    IT 

 










Legend :    VFR   Marginal VFR   IFR   Intensive IFR   Very Intensive IFR
Visi :
Ceiling :
>= 8 km
>= 3000ft
5 to 8 km
1000 to 3000 ft
1500m to 5 km
500 to 1000 ft
800 to 1500m
200 to 500 ft
< 800m
< 200 ft
Symbols :   Thunderstorms  Fog  Heavy snow  Heavy precipitations  Wind > 20 kt
SIGMETs :     Misc.  Thunderstorms  Icing  Turbulence  Mountain Waves  Volcanic Ashes







- Airport Elevation : 870 ft
- IATA code : ETZ
- Download approach charts


LFJL - Metz Nancy Lorraine

CURRENT METAR :
  • 160900Z AUTO 30009KT 7000 BKN009 OVC050 02/01 Q1011 TEMPO 4000 BR

EXPIRED METARs :
  • 160830Z AUTO 30007KT 6000 -RA BKN007 BKN015 BKN028 02/01 Q1010 TEMPO 4000 BR
  • 160800Z AUTO 31008KT 9999 FEW020 OVC047 02/01 Q1010 TEMPO 4000 BR BKN008
  • 160730Z AUTO 31009KT 9999 FEW045 OVC054 02/01 Q1009 TEMPO 4000 BR BKN008
  • 160700Z AUTO 30009KT 9999 OVC042 02/01 Q1008 TEMPO 4000 BR BKN008
  • 160630Z AUTO 31007KT 9000 SCT013 OVC038 02/01 Q1008 TEMPO 4000 BR BKN008
  • 160600Z AUTO 33008KT 9999 FEW011 SCT025 OVC034 02/01 Q1007 TEMPO 4000 BR BKN008

TAF TAF LFJL
Valid from the 16 at 06:00 until the 17 at 06:00 UTC


160500Z 1606/1706 31008KT 9999 OVC016
TEMPO 1606/1612 BKN008
PROB30
TEMPO 1606/1612 4000 BR
TEMPO 1615/1621 3000 -SHSN BKN008 FEW020TCU
BECMG 1621/1623 BKN012
TEMPO 1703/1706 3000 -SN OVC005
No reported NOTAMs for that airfield.



MET'MAP, your aeronautical weather chart ! - Copyright ORBIFLY December 2007 - Disclaimer

ORBIFLY MET'MAP TEAM :

Programming & Development : Alexandra Zaïnal
Concept & Development : Baudouin d'Aumeries
Co-Development & Prog : Marc-Olivier Méhu
Technical & hardware support : Manuel Goepfert

Contact : metmap@orbifly.com




SOURCES & CREDITS :

   NOAA